createdAt,value
2022-12-20T00:01:37.282Z,62.91
2022-12-20T00:04:06.864Z,62.88
2022-12-20T00:06:35.475Z,63.39
2022-12-20T00:09:03.879Z,63.27
2022-12-20T00:11:31.776Z,63.13
2022-12-20T00:13:59.691Z,63.12
2022-12-20T00:16:28.487Z,62.74
2022-12-20T00:18:57.819Z,63.08
2022-12-20T00:21:27.202Z,63.16
2022-12-20T00:23:55.521Z,62.70
2022-12-20T00:26:25.692Z,62.69
2022-12-20T00:28:53.865Z,62.82
2022-12-20T00:31:22.938Z,62.89
2022-12-20T00:33:51.683Z,62.48
2022-12-20T00:36:19.750Z,62.44
2022-12-20T00:38:49.189Z,62.42
2022-12-20T00:41:18.128Z,62.48
2022-12-20T00:43:46.040Z,62.67
2022-12-20T00:46:14.479Z,62.89
2022-12-20T00:48:42.394Z,62.74
2022-12-20T00:51:11.219Z,63.08
2022-12-20T00:53:39.495Z,63.09
2022-12-20T00:56:09.232Z,63.31
2022-12-20T00:58:38.287Z,63.78
2022-12-20T01:01:07.064Z,63.64
2022-12-20T01:03:35.158Z,63.81
2022-12-20T01:06:03.348Z,63.99
2022-12-20T01:08:31.816Z,63.95
2022-12-20T01:11:00.905Z,63.73
2022-12-20T01:13:30.434Z,64.13
2022-12-20T01:15:58.411Z,64.08
2022-12-20T01:18:26.545Z,64.10
2022-12-20T01:21:02.232Z,64.45
2022-12-20T01:23:30.446Z,64.55
2022-12-20T01:25:59.824Z,64.55
2022-12-20T01:28:27.852Z,64.82
2022-12-20T01:30:57.123Z,64.71
2022-12-20T01:33:25.087Z,64.86
2022-12-20T01:35:57.523Z,64.74
2022-12-20T01:38:25.440Z,64.90
2022-12-20T01:40:53.504Z,64.79
2022-12-20T01:43:21.602Z,64.67
2022-12-20T01:45:49.636Z,64.88
2022-12-20T01:48:22.770Z,64.75
2022-12-20T01:50:50.663Z,64.90
2022-12-20T01:53:18.724Z,64.94
2022-12-20T01:55:47.917Z,64.85
2022-12-20T01:58:15.927Z,64.71
2022-12-20T02:00:43.896Z,64.78
2022-12-20T02:03:14.034Z,64.68
2022-12-20T02:05:44.413Z,64.35
2022-12-20T02:08:13.193Z,64.25
2022-12-20T02:10:47.952Z,64.08
2022-12-20T02:13:21.054Z,64.04
2022-12-20T02:15:51.095Z,63.95
2022-12-20T02:18:23.075Z,64.13
2022-12-20T02:21:02.444Z,63.81
2022-12-20T02:24:04.905Z,64.02
2022-12-20T02:26:56.004Z,63.89
2022-12-20T02:29:26.380Z,63.89
2022-12-20T02:31:59.313Z,63.96
2022-12-20T02:34:27.390Z,64.03
2022-12-20T02:36:59.206Z,63.97
2022-12-20T02:39:27.538Z,63.75
2022-12-20T02:41:56.327Z,63.61
2022-12-20T02:44:43.518Z,63.82
2022-12-20T02:47:15.157Z,63.46
2022-12-20T02:49:43.110Z,63.82
2022-12-20T02:52:11.034Z,63.81
2022-12-20T02:54:38.908Z,63.71
2022-12-20T02:57:09.396Z,63.80
2022-12-20T02:59:38.688Z,63.67
2022-12-20T03:02:06.822Z,63.41
2022-12-20T03:04:36.486Z,63.57
2022-12-20T03:07:05.867Z,63.30
2022-12-20T03:09:34.830Z,63.30
2022-12-20T03:12:02.691Z,63.49
2022-12-20T03:14:30.629Z,63.27
2022-12-20T03:16:58.730Z,63.04
2022-12-20T03:19:26.688Z,62.89
2022-12-20T03:21:55.998Z,63.09
2022-12-20T03:24:23.939Z,63.15
2022-12-20T03:26:51.809Z,63.11
2022-12-20T03:29:19.717Z,63.34
2022-12-20T03:31:47.604Z,63.26
2022-12-20T03:34:15.503Z,62.83
2022-12-20T03:36:43.459Z,62.63
2022-12-20T03:39:13.177Z,62.59
2022-12-20T03:41:41.074Z,62.39
2022-12-20T03:44:09.047Z,62.13
2022-12-20T03:46:37.124Z,62.22
2022-12-20T03:49:05.009Z,62.11
2022-12-20T03:51:32.916Z,62.20
2022-12-20T03:54:00.824Z,61.65
2022-12-20T03:56:30.077Z,61.59
2022-12-20T03:58:57.982Z,61.45
2022-12-20T04:01:26.977Z,61.40
2022-12-20T04:03:55.594Z,61.29
2022-12-20T04:06:23.949Z,61.33
2022-12-20T04:08:51.870Z,61.49
2022-12-20T04:11:19.787Z,61.64
2022-12-20T04:13:49.752Z,61.73
2022-12-20T04:16:18.927Z,61.36
2022-12-20T04:18:46.844Z,61.74
2022-12-20T04:21:14.893Z,61.62
2022-12-20T04:23:43.441Z,61.31
2022-12-20T04:26:13.338Z,61.22
2022-12-20T04:28:41.328Z,61.42
2022-12-20T04:31:11.060Z,61.26
2022-12-20T04:33:39.086Z,61.13
2022-12-20T04:36:07.318Z,61.19
2022-12-20T04:38:35.226Z,61.36
2022-12-20T04:41:03.160Z,61.30
2022-12-20T04:43:31.037Z,61.35
2022-12-20T04:45:59.086Z,61.64
2022-12-20T04:51:16.970Z,62.58
2022-12-20T04:53:49.859Z,62.63
2022-12-20T04:56:18.701Z,62.76
2022-12-20T04:58:46.895Z,63.02
2022-12-20T05:01:14.832Z,63.11
2022-12-20T05:03:44.269Z,63.37
2022-12-20T05:06:12.213Z,63.32
2022-12-20T05:08:40.127Z,63.39
2022-12-20T05:11:08.009Z,62.95
2022-12-20T05:13:36.074Z,62.56
2022-12-20T05:16:04.170Z,62.29
2022-12-20T05:18:32.130Z,62.09
2022-12-20T05:21:19.585Z,61.73
2022-12-20T05:24:04.655Z,61.74
2022-12-20T05:26:33.828Z,61.92
2022-12-20T05:29:01.742Z,62.00
2022-12-20T05:31:29.630Z,62.36
2022-12-20T05:33:57.604Z,62.44
2022-12-20T05:36:27.129Z,63.08
2022-12-20T05:39:00.105Z,63.07
2022-12-20T05:41:31.729Z,63.06
2022-12-20T05:43:59.704Z,63.05
2022-12-20T05:46:27.669Z,63.11
2022-12-20T05:48:55.862Z,63.06
2022-12-20T05:51:24.052Z,63.07
2022-12-20T05:53:53.343Z,63.03
2022-12-20T05:56:21.258Z,63.19
2022-12-20T05:58:49.169Z,62.87
2022-12-20T06:01:17.093Z,62.75
2022-12-20T06:03:45.827Z,62.64
2022-12-20T06:06:14.843Z,62.64
2022-12-20T06:08:43.410Z,62.67
2022-12-20T06:11:12.670Z,62.82
2022-12-20T06:13:40.576Z,62.95
2022-12-20T06:16:08.765Z,62.82
2022-12-20T06:18:36.663Z,62.73
2022-12-20T06:21:04.982Z,62.65
2022-12-20T06:23:34.202Z,62.78
2022-12-20T06:26:02.127Z,62.60
2022-12-20T06:28:31.462Z,62.57
2022-12-20T06:30:59.420Z,62.32
2022-12-20T06:33:27.423Z,62.49
2022-12-20T06:35:55.305Z,62.53
2022-12-20T06:38:23.236Z,62.34
2022-12-20T06:40:51.145Z,62.35
2022-12-20T06:43:19.011Z,62.24
2022-12-20T06:45:48.353Z,62.30
2022-12-20T06:48:16.236Z,62.33
2022-12-20T06:50:44.133Z,62.48
2022-12-20T06:53:12.078Z,62.22
2022-12-20T06:55:40.572Z,62.43
2022-12-20T06:58:08.517Z,62.27
2022-12-20T07:00:36.608Z,62.51
2022-12-20T07:03:06.089Z,62.25
2022-12-20T07:05:34.138Z,62.12
2022-12-20T07:08:05.492Z,61.79
2022-12-20T07:10:34.592Z,62.07
2022-12-20T07:13:02.433Z,61.89
2022-12-20T07:15:30.492Z,62.04
2022-12-20T07:17:58.402Z,62.00
2022-12-20T07:20:27.736Z,62.05
2022-12-20T07:22:55.726Z,62.10
2022-12-20T07:25:24.748Z,62.15
2022-12-20T07:27:52.744Z,62.00
2022-12-20T07:30:21.398Z,61.88
2022-12-20T07:32:49.623Z,62.05
2022-12-20T07:35:18.459Z,61.85
2022-12-20T07:37:47.724Z,61.88
2022-12-20T07:40:16.413Z,62.03
2022-12-20T07:42:48.510Z,61.97
2022-12-20T07:45:17.142Z,62.27
2022-12-20T07:47:45.052Z,62.00
2022-12-20T07:50:13.101Z,61.94
2022-12-20T07:52:41.316Z,61.88
2022-12-20T07:55:11.417Z,61.88
2022-12-20T07:57:41.969Z,61.85
2022-12-20T08:00:10.867Z,61.91
2022-12-20T08:02:40.363Z,61.97
2022-12-20T08:05:09.314Z,62.12
2022-12-20T08:07:37.240Z,62.03
2022-12-20T08:10:06.249Z,61.90
2022-12-20T08:12:35.565Z,61.83
2022-12-20T08:15:03.625Z,61.80
2022-12-20T08:17:31.499Z,61.84
2022-12-20T08:20:00.630Z,61.75
2022-12-20T08:22:28.632Z,61.73
2022-12-20T08:24:56.573Z,61.82
2022-12-20T08:27:24.473Z,61.95
2022-12-20T08:29:53.743Z,62.02
2022-12-20T08:32:21.638Z,62.14
2022-12-20T08:34:49.573Z,62.01
2022-12-20T08:37:17.720Z,62.22
2022-12-20T08:39:45.659Z,62.02
2022-12-20T08:42:13.798Z,62.09
2022-12-20T08:44:41.704Z,61.92
2022-12-20T08:47:11.523Z,61.80
2022-12-20T08:49:45.677Z,61.50
2022-12-20T08:52:15.456Z,61.28
2022-12-20T08:54:43.476Z,61.33
2022-12-20T08:57:11.381Z,61.36
2022-12-20T08:59:39.339Z,61.36
2022-12-20T09:02:08.011Z,61.84
2022-12-20T09:04:37.504Z,62.06
2022-12-20T09:07:05.567Z,62.17
2022-12-20T09:09:33.523Z,62.34
2022-12-20T09:12:01.441Z,62.44
2022-12-20T09:14:29.751Z,62.33
2022-12-20T09:16:58.023Z,62.30
2022-12-20T09:19:26.384Z,62.05
2022-12-20T09:21:56.741Z,62.20
2022-12-20T09:24:25.238Z,61.81
2022-12-20T09:26:53.589Z,62.07
2022-12-20T09:29:28.212Z,62.00
2022-12-20T09:31:56.871Z,62.10
2022-12-20T09:34:25.251Z,61.99
2022-12-20T09:36:55.637Z,62.24
2022-12-20T09:39:24.263Z,62.36
2022-12-20T09:41:52.182Z,62.25
2022-12-20T09:44:21.530Z,62.00
2022-12-20T09:46:54.923Z,62.04
2022-12-20T09:49:22.877Z,62.12
2022-12-20T09:52:14.199Z,62.16
2022-12-20T09:54:45.720Z,62.24
2022-12-20T09:57:18.011Z,62.38
2022-12-20T09:59:49.522Z,62.68
2022-12-20T10:05:14.684Z,63.18
2022-12-20T10:07:48.061Z,62.94
2022-12-20T10:10:27.197Z,62.73
2022-12-20T10:12:57.984Z,62.60
2022-12-20T10:15:28.155Z,62.71
2022-12-20T10:18:02.185Z,62.34
2022-12-20T10:20:36.160Z,62.70
2022-12-20T10:23:06.512Z,62.48
2022-12-20T10:25:34.823Z,62.63
2022-12-20T10:28:04.099Z,62.86
2022-12-20T10:30:33.451Z,62.40
2022-12-20T10:33:01.389Z,62.78
2022-12-20T10:35:31.427Z,62.62
2022-12-20T10:38:09.367Z,62.92
2022-12-20T10:41:18.606Z,64.24
2022-12-20T10:43:27.837Z,65.78
2022-12-20T10:45:57.821Z,65.93
2022-12-20T10:48:29.180Z,66.36
2022-12-20T10:50:57.815Z,66.27
2022-12-20T10:53:27.234Z,65.38
2022-12-20T10:56:13.801Z,64.67
2022-12-20T10:58:42.310Z,64.01
2022-12-20T11:01:14.934Z,63.45
2022-12-20T11:03:51.930Z,63.72
2022-12-20T11:06:20.402Z,63.27
2022-12-20T11:08:57.076Z,63.12
2022-12-20T11:11:35.043Z,63.29
2022-12-20T11:14:15.562Z,61.85
2022-12-20T11:16:43.530Z,61.76
2022-12-20T11:19:47.844Z,61.42
2022-12-20T11:22:22.877Z,61.99
2022-12-20T11:24:54.383Z,60.68
2022-12-20T11:27:27.348Z,60.70
2022-12-20T11:30:11.193Z,59.86
2022-12-20T11:32:55.888Z,59.96
2022-12-20T11:35:25.588Z,58.47
2022-12-20T11:37:57.262Z,57.29
2022-12-20T11:40:30.781Z,54.91
2022-12-20T11:43:18.131Z,54.50
2022-12-20T11:45:50.785Z,54.63
2022-12-20T11:48:36.599Z,54.97
2022-12-20T11:51:07.541Z,55.79
2022-12-20T11:53:39.170Z,56.06
2022-12-20T11:56:10.078Z,56.64
2022-12-20T11:58:47.053Z,57.00
2022-12-20T12:01:16.163Z,57.19
2022-12-20T12:03:46.255Z,55.48
2022-12-20T12:06:20.971Z,54.15
2022-12-20T12:08:51.288Z,54.20
2022-12-20T12:12:04.093Z,54.06
2022-12-20T12:14:11.314Z,54.35
2022-12-20T12:16:41.195Z,54.48
2022-12-20T12:19:10.315Z,54.23
2022-12-20T12:21:39.792Z,54.46
2022-12-20T12:24:09.578Z,54.91
2022-12-20T12:26:39.515Z,54.86
2022-12-20T12:29:13.028Z,55.34
2022-12-20T12:31:42.582Z,55.62
2022-12-20T12:34:14.875Z,55.07
2022-12-20T12:37:18.277Z,53.83
2022-12-20T12:39:54.604Z,53.32
2022-12-20T12:42:34.607Z,53.32
2022-12-20T12:45:04.816Z,53.27
2022-12-20T12:47:36.679Z,54.34
2022-12-20T12:50:04.848Z,55.36
2022-12-20T12:52:42.854Z,53.99
2022-12-20T12:55:36.687Z,52.87
2022-12-20T12:58:31.442Z,52.29
2022-12-20T13:01:01.231Z,52.91
2022-12-20T13:03:47.602Z,53.22
2022-12-20T13:06:44.656Z,53.36
2022-12-20T13:09:20.239Z,54.91
2022-12-20T13:11:52.308Z,57.19
2022-12-20T13:14:50.976Z,56.58
2022-12-20T13:17:49.243Z,54.03
2022-12-20T13:20:19.705Z,54.59
2022-12-20T13:23:17.417Z,56.85
2022-12-20T13:25:46.585Z,56.49
2022-12-20T13:28:45.852Z,53.96
2022-12-20T13:31:33.697Z,53.23
2022-12-20T13:34:04.119Z,52.70
2022-12-20T13:36:39.253Z,53.30
2022-12-20T13:39:33.310Z,52.42
2022-12-20T13:42:35.521Z,51.66
2022-12-20T13:45:04.030Z,52.09
2022-12-20T13:47:40.167Z,51.26
2022-12-20T13:50:33.140Z,49.66
2022-12-20T13:53:01.243Z,47.66
2022-12-20T13:55:37.395Z,48.31
2022-12-20T13:58:11.854Z,48.39
2022-12-20T14:00:39.871Z,48.98
2022-12-20T14:03:20.571Z,49.30
2022-12-20T14:05:50.107Z,49.47
2022-12-20T14:08:19.136Z,49.51
2022-12-20T14:10:47.026Z,49.77
2022-12-20T14:13:20.615Z,49.96
2022-12-20T14:15:48.693Z,50.20
2022-12-20T14:18:21.099Z,50.75
2022-12-20T14:20:51.447Z,50.49
2022-12-20T14:23:20.810Z,50.85
2022-12-20T14:25:49.481Z,50.98
2022-12-20T14:28:27.581Z,51.17
2022-12-20T14:30:56.352Z,51.90
2022-12-20T14:33:28.902Z,53.04
2022-12-20T14:35:59.969Z,54.36
2022-12-20T14:38:30.787Z,53.97
2022-12-20T14:40:58.843Z,53.96
2022-12-20T14:43:29.084Z,54.38
2022-12-20T14:46:15.165Z,54.49
2022-12-20T14:48:43.653Z,54.21
2022-12-20T14:51:12.981Z,54.33
2022-12-20T14:53:40.951Z,53.89
2022-12-20T14:56:15.390Z,51.57
2022-12-20T14:58:43.303Z,49.54
2022-12-20T15:01:21.937Z,49.44
2022-12-20T15:03:51.688Z,49.15
2022-12-20T15:06:34.794Z,49.25
2022-12-20T15:09:02.764Z,49.76
2022-12-20T15:11:31.040Z,49.57
2022-12-20T15:13:59.264Z,50.39
2022-12-20T15:16:29.187Z,50.12
2022-12-20T15:18:58.465Z,50.47
2022-12-20T15:21:30.326Z,50.80
2022-12-20T15:24:00.995Z,50.96
2022-12-20T15:26:29.132Z,51.38
2022-12-20T15:28:57.639Z,51.04
2022-12-20T15:31:32.483Z,51.45
2022-12-20T15:34:02.521Z,52.12
2022-12-20T15:36:30.869Z,52.14
2022-12-20T15:39:12.656Z,52.10
2022-12-20T15:41:42.760Z,52.45
2022-12-20T15:44:13.668Z,52.71
2022-12-20T15:46:41.656Z,52.67
2022-12-20T15:49:14.183Z,52.90
2022-12-20T15:51:44.245Z,52.87
2022-12-20T15:54:19.814Z,53.05
2022-12-20T15:56:47.727Z,53.24
2022-12-20T15:59:48.882Z,53.54
2022-12-20T16:02:03.858Z,53.55
2022-12-20T16:04:31.863Z,53.72
2022-12-20T16:06:59.738Z,53.74
2022-12-20T16:09:29.040Z,53.73
2022-12-20T16:11:57.179Z,53.84
2022-12-20T16:14:27.339Z,54.19
2022-12-20T16:16:55.249Z,54.24
2022-12-20T16:19:23.181Z,54.33
2022-12-20T16:21:51.965Z,54.33
2022-12-20T16:24:22.011Z,54.23
2022-12-20T16:26:51.643Z,54.61
2022-12-20T16:29:19.560Z,54.49
2022-12-20T16:31:47.545Z,54.60
2022-12-20T16:34:16.385Z,54.55
2022-12-20T16:36:44.297Z,54.74
2022-12-20T16:39:12.206Z,54.54
2022-12-20T16:41:41.002Z,55.01
2022-12-20T16:44:14.202Z,54.76
2022-12-20T16:46:42.220Z,55.08
2022-12-20T16:49:14.999Z,54.92
2022-12-20T16:51:47.743Z,55.02
2022-12-20T16:54:19.771Z,55.22
2022-12-20T16:56:48.525Z,55.20
2022-12-20T16:59:20.600Z,55.08
2022-12-20T17:01:49.941Z,55.09
2022-12-20T17:04:18.635Z,55.19
2022-12-20T17:06:46.853Z,55.16
2022-12-20T17:12:01.723Z,55.33
2022-12-20T17:14:31.076Z,55.50
2022-12-20T17:16:59.893Z,55.37
2022-12-20T17:19:27.897Z,55.61
2022-12-20T17:24:41.501Z,55.61
2022-12-20T17:27:10.542Z,56.08
2022-12-20T17:29:40.968Z,55.64
2022-12-20T17:32:18.372Z,55.79
2022-12-20T17:34:46.482Z,55.90
2022-12-20T17:37:14.447Z,55.92
2022-12-20T17:39:42.381Z,55.91
2022-12-20T17:42:10.705Z,55.97
2022-12-20T17:44:40.511Z,56.16
2022-12-20T17:47:08.388Z,56.04
2022-12-20T17:49:36.271Z,56.13
2022-12-20T17:52:04.477Z,56.18
2022-12-20T17:54:39.736Z,56.31
2022-12-20T17:57:11.293Z,56.36
2022-12-20T17:59:40.589Z,56.40
2022-12-20T18:02:22.297Z,56.35
2022-12-20T18:04:50.804Z,56.55
2022-12-20T18:07:18.751Z,56.49
2022-12-20T18:09:48.035Z,56.80
2022-12-20T18:12:15.982Z,56.67
2022-12-20T18:14:45.705Z,56.74
2022-12-20T18:17:13.713Z,56.82
2022-12-20T18:19:44.355Z,56.82
2022-12-20T18:22:12.822Z,56.88
2022-12-20T18:24:40.784Z,56.83
2022-12-20T18:27:08.836Z,56.86
2022-12-20T18:29:36.739Z,56.73
2022-12-20T18:32:06.776Z,56.80
2022-12-20T18:34:34.836Z,56.91
2022-12-20T18:37:05.497Z,56.98
2022-12-20T18:39:33.603Z,56.86
2022-12-20T18:42:01.537Z,57.22
2022-12-20T18:44:29.615Z,57.06
2022-12-20T18:46:57.598Z,57.13
2022-12-20T18:49:27.519Z,57.12
2022-12-20T18:51:55.382Z,57.13
2022-12-20T18:54:23.305Z,57.12
2022-12-20T18:56:51.378Z,57.04
2022-12-20T18:59:21.256Z,57.01
2022-12-20T19:01:49.382Z,57.10
2022-12-20T19:04:24.095Z,56.92
2022-12-20T19:06:54.024Z,57.08
2022-12-20T19:09:22.041Z,57.08
2022-12-20T19:11:56.348Z,56.93
2022-12-20T19:14:24.757Z,57.07
2022-12-20T19:16:52.956Z,57.14
2022-12-20T19:19:21.303Z,57.25
2022-12-20T19:21:49.240Z,57.41
2022-12-20T19:24:18.528Z,57.37
2022-12-20T19:26:46.417Z,57.34
2022-12-20T19:29:14.469Z,57.32
2022-12-20T19:31:42.470Z,57.33
2022-12-20T19:34:12.516Z,57.30
2022-12-20T19:36:41.346Z,57.40
2022-12-20T19:39:13.776Z,57.48
2022-12-20T19:41:43.118Z,57.46
2022-12-20T19:44:11.029Z,57.53
2022-12-20T19:46:39.241Z,57.69
2022-12-20T19:49:07.271Z,57.74
2022-12-20T19:51:35.143Z,57.86
2022-12-20T19:54:03.103Z,57.86
2022-12-20T19:56:32.416Z,57.86
2022-12-20T19:59:01.700Z,58.05
2022-12-20T20:01:29.867Z,57.98
2022-12-20T20:03:58.882Z,57.94
2022-12-20T20:06:27.005Z,57.89
2022-12-20T20:08:57.578Z,57.86
2022-12-20T20:11:25.830Z,58.16
2022-12-20T20:13:53.781Z,58.07
2022-12-20T20:16:23.864Z,58.04
2022-12-20T20:18:51.866Z,58.12
2022-12-20T20:21:22.409Z,58.10
2022-12-20T20:23:50.638Z,58.05
2022-12-20T20:26:19.863Z,58.04
2022-12-20T20:28:47.779Z,57.99
2022-12-20T20:31:16.966Z,58.02
2022-12-20T20:33:46.794Z,58.06
2022-12-20T20:36:15.532Z,58.01
2022-12-20T20:38:43.445Z,57.99
2022-12-20T20:41:11.428Z,58.05
2022-12-20T20:43:39.336Z,58.07
2022-12-20T20:46:08.147Z,57.97
2022-12-20T20:48:36.207Z,58.21
2022-12-20T20:51:05.801Z,58.21
2022-12-20T20:53:34.501Z,58.16
2022-12-20T20:56:02.717Z,58.15
2022-12-20T20:58:30.658Z,58.15
2022-12-20T21:00:58.917Z,58.14
2022-12-20T21:03:27.352Z,58.17
2022-12-20T21:08:44.746Z,58.06
2022-12-20T21:11:13.195Z,58.13
2022-12-20T21:13:41.308Z,58.10
2022-12-20T21:16:09.835Z,58.16
2022-12-20T21:18:37.823Z,58.17
2022-12-20T21:21:09.457Z,58.02
2022-12-20T21:23:37.485Z,58.01
2022-12-20T21:26:07.552Z,58.06
2022-12-20T21:28:35.692Z,58.05
2022-12-20T21:31:05.533Z,58.16
2022-12-20T21:33:33.680Z,58.15
2022-12-20T21:36:02.283Z,58.08
2022-12-20T21:38:30.254Z,57.97
2022-12-20T21:41:02.033Z,57.97
2022-12-20T21:43:31.348Z,57.96
2022-12-20T21:45:59.260Z,57.95
2022-12-20T21:48:27.376Z,57.78
2022-12-20T21:51:02.042Z,57.88
2022-12-20T21:53:30.110Z,57.88
2022-12-20T21:55:58.315Z,57.74
2022-12-20T21:58:26.478Z,57.67
2022-12-20T22:00:56.026Z,57.73
2022-12-20T22:03:24.479Z,57.73
2022-12-20T22:05:53.988Z,57.81
2022-12-20T22:08:22.173Z,57.80
2022-12-20T22:10:50.840Z,57.75
2022-12-20T22:13:18.811Z,57.59
2022-12-20T22:15:46.693Z,57.55
2022-12-20T22:18:15.947Z,57.71
2022-12-20T22:20:45.301Z,57.58
2022-12-20T22:23:13.224Z,57.53
2022-12-20T22:25:41.151Z,57.46
2022-12-20T22:28:09.123Z,57.55
2022-12-20T22:30:40.725Z,57.59
2022-12-20T22:33:08.652Z,57.54
2022-12-20T22:35:38.073Z,57.49
2022-12-20T22:38:06.394Z,57.54
2022-12-20T22:40:34.281Z,57.57
2022-12-20T22:43:02.218Z,57.50
2022-12-20T22:45:30.328Z,57.59
2022-12-20T22:47:58.295Z,57.55
2022-12-20T22:50:26.295Z,57.50
2022-12-20T22:52:55.554Z,57.64
2022-12-20T22:55:23.531Z,57.45
2022-12-20T22:57:51.429Z,57.51
2022-12-20T23:00:19.790Z,57.43
2022-12-20T23:02:47.878Z,57.33
2022-12-20T23:05:15.926Z,57.23
2022-12-20T23:07:43.821Z,57.24
2022-12-20T23:10:34.559Z,57.28
2022-12-20T23:13:20.086Z,57.42
2022-12-20T23:15:48.345Z,57.36
2022-12-20T23:18:16.272Z,57.40
2022-12-20T23:21:01.460Z,57.34
2022-12-20T23:23:29.329Z,57.45
2022-12-20T23:26:09.238Z,57.46
2022-12-20T23:28:37.164Z,57.23
2022-12-20T23:31:05.578Z,57.47
2022-12-20T23:33:33.607Z,57.55
2022-12-20T23:36:01.793Z,57.38
2022-12-20T23:38:32.281Z,57.42
2022-12-20T23:41:01.602Z,57.56
2022-12-20T23:43:30.685Z,57.49
2022-12-20T23:46:03.850Z,57.54
2022-12-20T23:48:32.183Z,57.61
2022-12-20T23:51:00.150Z,57.61
2022-12-20T23:53:28.043Z,57.70
2022-12-20T23:56:01.680Z,57.65
2022-12-20T23:58:29.605Z,57.72
